Time;durP1;ratioP1;P1;durP2;ratioP2;P2;SDS_P1;SDS_P2;PMS_P1;PMS_P2;Temp;Humidity;BMP_temperature;BMP_pressure;BME280_temperature;BME280_humidity;BME280_pressure;Samples;Min_cycle;Max_cycle;Signal;HPM_P1;HPM_P2
2022/12/12 00:00:44;;;;;;;;;;;0.50;99.90;;;;;;5028682;28;20020;-77
2022/12/12 00:03:10;;;;;;;;;;;0.40;99.90;;;;;;5029244;28;20294;-65
2022/12/12 00:05:36;;;;;;;;;;;0.40;99.90;;;;;;5029240;28;19929;-66
2022/12/12 00:08:01;;;;;;;;;;;0.50;99.90;;;;;;5044308;28;19929;-64
2022/12/12 00:10:27;;;;;;;;;;;0.40;99.90;;;;;;5044330;28;19926;-64
2022/12/12 00:12:53;;;;;;;;;;;0.40;99.90;;;;;;5028764;28;19982;-63
2022/12/12 00:15:18;;;;;;;;;;;0.40;99.90;;;;;;5029037;28;19925;-67
2022/12/12 00:17:44;;;;;;;;;;;0.60;99.90;;;;;;5028999;28;20286;-75
2022/12/12 00:20:10;;;;;;;;;;;0.40;99.90;;;;;;5027851;28;19925;-64
2022/12/12 00:22:35;;;;;;;;;;;0.40;99.90;;;;;;5028936;28;19933;-64
2022/12/12 00:25:01;;;;;;;;;;;0.40;99.90;;;;;;5028361;28;19978;-64
2022/12/12 00:27:26;;;;;;;;;;;0.50;99.90;;;;;;5028913;28;19936;-63
2022/12/12 00:29:53;;;;;;;;;;;0.40;99.90;;;;;;5026703;28;20396;-64
2022/12/12 00:32:18;;;;;;;;;;;0.40;99.90;;;;;;5044331;28;20366;-64
2022/12/12 00:34:44;;;;;;;;;;;0.40;99.90;;;;;;5028757;28;19932;-65
2022/12/12 00:37:09;;;;;;;;;;;0.40;99.90;;;;;;5028491;28;19929;-67
2022/12/12 00:39:35;;;;;;;;;;;0.40;99.90;;;;;;5044066;28;19925;-64
2022/12/12 00:42:01;;;;;;;;;;;0.40;99.90;;;;;;5028638;28;20016;-64
2022/12/12 00:44:26;;;;;;;;;;;0.40;99.90;;;;;;5027697;28;19975;-64
2022/12/12 00:46:52;;;;;;;;;;;0.40;99.90;;;;;;5043991;28;20029;-66
2022/12/12 00:49:17;;;;;;;;;;;0.40;99.90;;;;;;5028827;28;19932;-64
2022/12/12 00:51:43;;;;;;;;;;;0.40;99.90;;;;;;5028807;28;19950;-64
2022/12/12 00:54:09;;;;;;;;;;;0.40;99.90;;;;;;5028563;28;19977;-64
2022/12/12 00:56:35;;;;;;;;;;;0.40;99.90;;;;;;5028698;28;20008;-64
2022/12/12 00:59:01;;;;;;;;;;;0.40;99.90;;;;;;5043948;28;19925;-66
2022/12/12 01:01:28;;;;;;;;;;;0.60;99.90;;;;;;5028681;28;19929;-64
2022/12/12 01:03:53;;;;;;;;;;;0.40;99.90;;;;;;5027869;28;20383;-66
2022/12/12 01:06:20;;;;;;;;;;;1.30;99.90;;;;;;5028367;28;20035;-67
2022/12/12 01:08:45;;;;;;;;;;;0.40;99.90;;;;;;5028378;28;20451;-64
2022/12/12 01:11:11;;;;;;;;;;;0.50;99.90;;;;;;5043780;28;19929;-64
2022/12/12 01:13:37;;;;;;;;;;;0.50;99.90;;;;;;5028683;28;19933;-64
2022/12/12 01:16:03;;;;;;;;;;;0.40;99.90;;;;;;5028248;28;19925;-65
2022/12/12 01:18:29;;;;;;;;;;;0.50;99.90;;;;;;5028013;28;19933;-64
2022/12/12 01:20:55;;;;;;;;;;;0.50;99.90;;;;;;5028188;28;19925;-64
2022/12/12 01:23:20;;;;;;;;;;;0.50;99.90;;;;;;5010928;28;19978;-64
2022/12/12 01:25:46;;;;;;;;;;;0.40;99.90;;;;;;5028853;28;19948;-64
2022/12/12 01:28:11;;;;;;;;;;;0.40;99.90;;;;;;5027936;28;19971;-66
2022/12/12 01:30:37;;;;;;;;;;;0.50;99.90;;;;;;5028907;28;20366;-65
2022/12/12 01:33:03;;;;;;;;;;;0.40;99.90;;;;;;5031342;28;19925;-65
2022/12/12 01:35:29;;;;;;;;;;;0.40;99.90;;;;;;5013799;28;19975;-65
2022/12/12 01:37:55;;;;;;;;;;;0.40;99.90;;;;;;5031454;28;20286;-74
2022/12/12 01:40:26;;;;;;;;;;;-0.10;99.90;;;;;;5031382;28;19925;-66
2022/12/12 01:42:52;;;;;;;;;;;1.00;99.90;;;;;;5031733;28;19948;-64
2022/12/12 01:45:36;;;;;;;;;;;0.50;99.90;;;;;;5046597;28;19925;-63
2022/12/12 01:48:01;;;;;;;;;;;0.50;99.90;;;;;;5013610;28;19932;-63
2022/12/12 01:50:27;;;;;;;;;;;0.50;99.90;;;;;;5031343;28;19926;-64
2022/12/12 01:52:53;;;;;;;;;;;0.50;99.90;;;;;;5031016;28;19929;-64
2022/12/12 01:55:21;;;;;;;;;;;0.50;99.90;;;;;;5031155;28;19925;-66
2022/12/12 01:57:49;;;;;;;;;;;0.40;99.90;;;;;;5046895;28;20389;-64
2022/12/12 02:00:14;;;;;;;;;;;0.40;99.90;;;;;;5030672;28;19941;-63
2022/12/12 02:02:41;;;;;;;;;;;0.40;99.90;;;;;;5031247;28;20018;-65
2022/12/12 02:05:30;;;;;;;;;;;0.40;99.90;;;;;;5046204;28;20405;-63
2022/12/12 02:07:58;;;;;;;;;;;0.40;99.90;;;;;;5038447;28;20019;-64
2022/12/12 02:10:24;;;;;;;;;;;0.40;99.90;;;;;;5030593;28;20431;-65
2022/12/12 02:12:49;;;;;;;;;;;0.40;99.90;;;;;;5031184;28;19929;-69
2022/12/12 02:15:15;;;;;;;;;;;0.40;99.90;;;;;;5030531;28;19929;-65
2022/12/12 02:17:41;;;;;;;;;;;0.40;99.90;;;;;;5031084;28;19925;-66
2022/12/12 02:20:17;;;;;;;;;;;0.40;99.90;;;;;;5030296;28;19929;-65
2022/12/12 02:22:49;;;;;;;;;;;0.40;99.90;;;;;;5031118;28;19986;-64
2022/12/12 02:25:17;;;;;;;;;;;0.40;99.90;;;;;;5030096;28;19925;-64
2022/12/12 02:28:01;;;;;;;;;;;0.40;99.90;;;;;;5030953;28;19948;-68
2022/12/12 02:30:42;;;;;;;;;;;0.40;99.90;;;;;;5030652;28;19973;-64
2022/12/12 02:33:23;;;;;;;;;;;0.40;99.90;;;;;;5030416;28;19925;-64
2022/12/12 02:36:12;;;;;;;;;;;0.40;99.90;;;;;;5030665;28;20480;-64
2022/12/12 02:38:46;;;;;;;;;;;0.40;99.90;;;;;;5013314;28;19925;-64
2022/12/12 02:41:33;;;;;;;;;;;0.40;99.90;;;;;;5029839;28;19925;-64
2022/12/12 02:44:17;;;;;;;;;;;0.40;99.90;;;;;;5030691;28;19999;-64
2022/12/12 02:46:46;;;;;;;;;;;0.40;99.90;;;;;;5030308;28;20394;-66
2022/12/12 02:49:13;;;;;;;;;;;0.40;99.90;;;;;;5030328;28;19925;-65
2022/12/12 02:51:39;;;;;;;;;;;0.40;99.90;;;;;;5046199;28;19974;-64
2022/12/12 02:54:12;;;;;;;;;;;0.40;99.90;;;;;;5012958;28;19925;-75
2022/12/12 02:56:44;;;;;;;;;;;0.40;99.90;;;;;;5046133;28;19968;-64
2022/12/12 02:59:12;;;;;;;;;;;0.40;99.90;;;;;;5030081;28;19947;-65
2022/12/12 03:01:49;;;;;;;;;;;0.40;99.90;;;;;;5030297;28;19982;-64
2022/12/12 03:09:58;;;;;;;;;;;0.40;99.90;;;;;;5030381;28;19925;-64
2022/12/12 03:12:34;;;;;;;;;;;0.40;99.90;;;;;;5029942;28;19925;-64
2022/12/12 03:15:07;;;;;;;;;;;0.40;99.90;;;;;;5030337;28;19926;-65
2022/12/12 03:17:55;;;;;;;;;;;0.40;99.90;;;;;;5029665;28;19968;-64
2022/12/12 03:20:32;;;;;;;;;;;0.40;99.90;;;;;;4990454;28;19926;-64
2022/12/12 03:23:01;;;;;;;;;;;0.70;99.90;;;;;;4990762;28;19926;-64
2022/12/12 03:25:31;;;;;;;;;;;0.40;99.90;;;;;;4990367;28;19934;-64
2022/12/12 03:28:13;;;;;;;;;;;0.40;99.90;;;;;;4990447;28;19971;-64
2022/12/12 03:30:45;;;;;;;;;;;0.40;99.90;;;;;;5022406;28;20338;-64
2022/12/12 03:33:30;;;;;;;;;;;0.30;99.90;;;;;;4990361;28;20325;-73
2022/12/12 03:36:06;;;;;;;;;;;0.40;99.90;;;;;;4989713;28;19926;-63
2022/12/12 03:38:33;;;;;;;;;;;0.30;99.90;;;;;;4989937;28;20394;-64
2022/12/12 03:41:04;;;;;;;;;;;0.30;99.90;;;;;;4990573;28;19930;-66
2022/12/12 03:43:32;;;;;;;;;;;0.30;99.90;;;;;;4990336;28;19936;-64
2022/12/12 03:45:58;;;;;;;;;;;0.30;99.90;;;;;;4990464;28;19929;-64
2022/12/12 03:48:30;;;;;;;;;;;0.30;99.90;;;;;;4989837;28;19944;-64
2022/12/12 03:50:58;;;;;;;;;;;0.30;99.90;;;;;;4990392;28;19932;-65
2022/12/12 03:53:44;;;;;;;;;;;0.30;99.90;;;;;;4989086;28;19925;-65
2022/12/12 03:56:19;;;;;;;;;;;0.30;99.90;;;;;;4989926;28;19926;-67
2022/12/12 03:58:48;;;;;;;;;;;0.30;99.90;;;;;;4989316;28;19961;-64
2022/12/12 04:01:15;;;;;;;;;;;0.40;99.90;;;;;;4989835;28;20021;-76
2022/12/12 04:03:41;;;;;;;;;;;0.40;99.90;;;;;;4989103;28;19933;-64
2022/12/12 04:06:29;;;;;;;;;;;0.40;99.90;;;;;;4989115;28;19930;-63
2022/12/12 04:14:49;;;;;;;;;;;0.40;99.90;;;;;;4990191;28;19932;-63
2022/12/12 04:17:17;;;;;;;;;;;0.40;99.90;;;;;;4989873;28;19926;-64
2022/12/12 04:25:29;;;;;;;;;;;0.30;99.90;;;;;;5028936;28;19964;-64
2022/12/12 04:27:59;;;;;;;;;;;0.40;99.90;;;;;;5029379;28;19933;-64
2022/12/12 04:30:28;;;;;;;;;;;0.40;99.90;;;;;;5044411;28;20034;-69
2022/12/12 04:33:05;;;;;;;;;;;0.40;99.90;;;;;;5029050;28;20290;-65
2022/12/12 04:35:40;;;;;;;;;;;0.40;99.90;;;;;;5028928;28;19950;-65
2022/12/12 04:38:08;;;;;;;;;;;0.40;99.90;;;;;;5029410;28;19932;-65
2022/12/12 04:40:35;;;;;;;;;;;0.60;99.90;;;;;;5028366;28;19974;-65
2022/12/12 04:43:03;;;;;;;;;;;1.30;99.90;;;;;;5029065;28;20225;-66
2022/12/12 04:45:34;;;;;;;;;;;0.40;99.90;;;;;;5028685;28;20294;-65
2022/12/12 04:48:01;;;;;;;;;;;0.50;99.90;;;;;;5011241;28;19932;-65
2022/12/12 04:50:28;;;;;;;;;;;0.40;99.90;;;;;;5010917;28;19971;-64
2022/12/12 04:52:55;;;;;;;;;;;0.40;99.90;;;;;;5028939;28;19925;-64
2022/12/12 04:55:24;;;;;;;;;;;0.40;99.90;;;;;;5027617;28;19974;-74
2022/12/12 04:57:52;;;;;;;;;;;0.40;99.90;;;;;;5028741;28;19925;-64
2022/12/12 05:00:19;;;;;;;;;;;0.40;99.90;;;;;;5028881;28;20015;-64
2022/12/12 05:02:55;;;;;;;;;;;0.40;99.90;;;;;;5028706;28;19930;-66
2022/12/12 05:05:25;;;;;;;;;;;0.40;99.90;;;;;;5030159;28;19929;-75
2022/12/12 05:07:53;;;;;;;;;;;0.30;99.90;;;;;;5032195;28;19979;-64
2022/12/12 05:10:19;;;;;;;;;;;0.30;99.90;;;;;;5031255;28;19936;-64
2022/12/12 05:12:46;;;;;;;;;;;0.30;99.90;;;;;;5031838;28;19925;-64
2022/12/12 05:15:12;;;;;;;;;;;0.30;99.90;;;;;;5031174;28;19972;-64
2022/12/12 05:17:43;;;;;;;;;;;0.90;99.90;;;;;;5031720;28;19925;-64
2022/12/12 05:20:09;;;;;;;;;;;0.30;99.90;;;;;;5013789;28;19967;-67
2022/12/12 05:22:35;;;;;;;;;;;0.30;99.90;;;;;;5030590;28;19925;-63
2022/12/12 05:25:01;;;;;;;;;;;0.30;99.90;;;;;;5031666;28;19925;-63
2022/12/12 05:27:26;;;;;;;;;;;0.30;99.90;;;;;;5031433;28;20088;-65
2022/12/12 05:29:52;;;;;;;;;;;0.30;99.90;;;;;;5047389;28;19925;-63
2022/12/12 05:32:18;;;;;;;;;;;0.30;99.90;;;;;;5031786;28;20023;-64
2022/12/12 05:34:43;;;;;;;;;;;0.30;99.90;;;;;;5013983;28;19956;-64
2022/12/12 05:37:09;;;;;;;;;;;0.30;99.90;;;;;;5047112;28;19931;-63
2022/12/12 05:39:34;;;;;;;;;;;0.30;99.90;;;;;;5031428;28;19932;-64
2022/12/12 05:42:00;;;;;;;;;;;0.40;99.90;;;;;;5031668;28;20040;-64
2022/12/12 05:44:26;;;;;;;;;;;0.30;99.90;;;;;;5046728;28;19936;-75
2022/12/12 05:46:51;;;;;;;;;;;0.40;99.90;;;;;;5031288;28;20371;-64
2022/12/12 05:49:17;;;;;;;;;;;0.30;99.90;;;;;;5031317;28;19925;-64
2022/12/12 05:51:42;;;;;;;;;;;0.80;99.90;;;;;;5031181;28;19925;-64
2022/12/12 05:54:08;;;;;;;;;;;0.30;99.90;;;;;;5031460;28;19931;-63
2022/12/12 05:56:33;;;;;;;;;;;0.30;99.90;;;;;;4996765;28;20294;-64
2022/12/12 05:58:59;;;;;;;;;;;0.30;99.90;;;;;;5031220;28;20016;-64
2022/12/12 06:01:24;;;;;;;;;;;0.30;99.90;;;;;;5031569;28;19925;-65
2022/12/12 06:03:50;;;;;;;;;;;0.30;99.90;;;;;;5046317;28;19925;-65
2022/12/12 06:06:15;;;;;;;;;;;0.30;99.90;;;;;;5031285;28;20410;-66
2022/12/12 06:08:41;;;;;;;;;;;0.20;99.90;;;;;;5030666;28;20520;-64
2022/12/12 06:11:07;;;;;;;;;;;0.30;99.90;;;;;;5030920;28;19970;-64
2022/12/12 06:13:32;;;;;;;;;;;0.20;99.90;;;;;;5030804;28;19925;-64
2022/12/12 06:15:58;;;;;;;;;;;0.20;99.90;;;;;;5013324;28;19925;-64
2022/12/12 06:18:23;;;;;;;;;;;0.20;99.90;;;;;;5029281;28;20020;-68
2022/12/12 06:20:49;;;;;;;;;;;0.20;99.90;;;;;;5030260;28;19933;-65
2022/12/12 06:23:15;;;;;;;;;;;0.30;99.90;;;;;;5046226;28;19925;-65
2022/12/12 06:25:40;;;;;;;;;;;0.20;99.90;;;;;;5030300;28;20013;-64
2022/12/12 06:28:06;;;;;;;;;;;0.30;99.90;;;;;;5030838;28;19929;-64
2022/12/12 06:30:31;;;;;;;;;;;0.50;99.90;;;;;;5030533;28;20298;-74
2022/12/12 06:32:57;;;;;;;;;;;0.20;99.90;;;;;;5030427;28;19932;-65
2022/12/12 06:35:22;;;;;;;;;;;0.20;99.90;;;;;;5030781;28;20337;-64
2022/12/12 06:37:48;;;;;;;;;;;0.20;99.90;;;;;;5030385;28;19978;-67
2022/12/12 06:40:14;;;;;;;;;;;0.30;99.90;;;;;;5045394;28;20024;-73
2022/12/12 06:42:39;;;;;;;;;;;0.20;99.90;;;;;;5012546;28;19925;-64
2022/12/12 06:45:05;;;;;;;;;;;0.20;99.90;;;;;;5030362;28;20437;-64
2022/12/12 06:47:31;;;;;;;;;;;0.20;99.90;;;;;;5045954;28;20400;-66
2022/12/12 06:49:57;;;;;;;;;;;0.30;99.90;;;;;;5030047;28;19925;-67
2022/12/12 06:52:22;;;;;;;;;;;0.20;99.90;;;;;;5030431;28;19933;-65
2022/12/12 06:54:48;;;;;;;;;;;0.30;99.90;;;;;;5045459;28;19929;-65
2022/12/12 06:57:13;;;;;;;;;;;0.30;99.90;;;;;;5030308;28;20041;-64
2022/12/12 06:59:39;;;;;;;;;;;0.30;99.90;;;;;;5045127;28;19925;-63
2022/12/12 07:02:05;;;;;;;;;;;0.80;99.90;;;;;;5029813;28;19925;-63
2022/12/12 07:04:31;;;;;;;;;;;0.30;99.90;;;;;;5029669;28;19926;-69
2022/12/12 07:06:57;;;;;;;;;;;0.30;99.90;;;;;;5029750;28;19931;-65
2022/12/12 07:09:22;;;;;;;;;;;0.40;99.90;;;;;;5030097;27;19933;-64
2022/12/12 07:11:48;;;;;;;;;;;0.40;99.90;;;;;;5029669;28;19970;-64
2022/12/12 07:14:14;;;;;;;;;;;0.30;99.90;;;;;;5012866;28;20370;-64
2022/12/12 07:16:39;;;;;;;;;;;0.30;99.90;;;;;;5029694;28;19939;-65
2022/12/12 07:19:05;;;;;;;;;;;0.30;99.90;;;;;;5012079;28;19929;-65
2022/12/12 07:21:30;;;;;;;;;;;0.30;99.90;;;;;;5029490;28;19932;-66
2022/12/12 07:23:56;;;;;;;;;;;0.30;99.90;;;;;;5029277;28;19929;-67
2022/12/12 07:26:22;;;;;;;;;;;0.30;99.90;;;;;;5030091;28;19945;-65
2022/12/12 07:28:48;;;;;;;;;;;0.30;99.90;;;;;;5045168;28;19932;-64
2022/12/12 07:31:15;;;;;;;;;;;0.40;99.90;;;;;;5029909;28;19925;-67
2022/12/12 07:33:41;;;;;;;;;;;0.40;99.90;;;;;;5029286;28;19941;-68
2022/12/12 07:36:07;;;;;;;;;;;0.40;99.90;;;;;;5029787;28;19929;-64
2022/12/12 07:38:33;;;;;;;;;;;0.40;99.90;;;;;;5029785;28;19925;-64
2022/12/12 07:41:25;;;;;;;;;;;0.30;99.90;;;;;;5028996;28;19925;-65
2022/12/12 07:43:51;;;;;;;;;;;0.40;99.90;;;;;;5031418;28;20374;-64
2022/12/12 07:46:21;;;;;;;;;;;0.30;99.90;;;;;;5044810;28;19929;-64
2022/12/12 07:48:47;;;;;;;;;;;0.30;99.90;;;;;;5028805;28;20020;-64
2022/12/12 07:51:13;;;;;;;;;;;0.30;99.90;;;;;;5029459;28;20351;-64
2022/12/12 07:53:39;;;;;;;;;;;0.30;99.90;;;;;;5029329;28;19925;-64
2022/12/12 07:56:08;;;;;;;;;;;0.30;99.90;;;;;;5011580;28;19925;-66
2022/12/12 07:58:34;;;;;;;;;;;0.30;99.90;;;;;;5029432;28;19929;-64
2022/12/12 08:01:00;;;;;;;;;;;0.60;99.90;;;;;;5028961;28;19925;-64
2022/12/12 08:03:26;;;;;;;;;;;0.40;99.90;;;;;;5029378;28;20274;-64
2022/12/12 08:05:51;;;;;;;;;;;0.40;99.90;;;;;;5029409;28;19925;-64
2022/12/12 08:08:17;;;;;;;;;;;0.40;99.90;;;;;;5029190;28;20319;-64
2022/12/12 08:10:43;;;;;;;;;;;0.40;99.90;;;;;;5028917;28;19932;-72
2022/12/12 08:13:08;;;;;;;;;;;0.40;99.90;;;;;;5028975;28;19925;-63
2022/12/12 08:15:34;;;;;;;;;;;0.40;99.90;;;;;;5029176;28;19944;-64
2022/12/12 08:18:00;;;;;;;;;;;0.40;99.90;;;;;;5028622;28;19926;-64
2022/12/12 08:20:26;;;;;;;;;;;0.50;99.90;;;;;;5028873;28;19929;-65
2022/12/12 08:22:51;;;;;;;;;;;0.50;99.90;;;;;;5028169;28;19932;-65
2022/12/12 08:25:17;;;;;;;;;;;0.80;99.90;;;;;;5044234;28;19926;-64
2022/12/12 08:27:43;;;;;;;;;;;0.50;99.90;;;;;;5028885;28;20433;-65
2022/12/12 08:30:08;;;;;;;;;;;0.50;99.90;;;;;;5043674;28;19931;-65
2022/12/12 08:32:34;;;;;;;;;;;0.50;99.90;;;;;;5011178;28;19926;-65
2022/12/12 08:35:00;;;;;;;;;;;0.50;99.90;;;;;;5043810;28;19968;-64
2022/12/12 08:37:26;;;;;;;;;;;0.60;99.90;;;;;;5011397;28;20337;-66
2022/12/12 08:39:51;;;;;;;;;;;0.60;99.90;;;;;;5029127;28;19951;-64
2022/12/12 08:42:17;;;;;;;;;;;0.60;99.90;;;;;;5048194;28;19976;-64
2022/12/12 08:44:42;;;;;;;;;;;0.60;99.90;;;;;;5032221;28;19925;-66
2022/12/12 08:47:08;;;;;;;;;;;0.70;99.90;;;;;;5046861;28;20562;-65
2022/12/12 08:49:34;;;;;;;;;;;0.70;99.90;;;;;;5032160;28;19977;-66
2022/12/12 08:51:59;;;;;;;;;;;0.70;99.90;;;;;;5031813;28;19925;-66
2022/12/12 08:54:25;;;;;;;;;;;0.70;99.90;;;;;;5047335;28;19970;-65
2022/12/12 08:56:51;;;;;;;;;;;0.70;99.90;;;;;;5014321;28;19925;-72
2022/12/12 08:59:16;;;;;;;;;;;0.70;99.90;;;;;;5047509;28;19940;-65
2022/12/12 09:01:42;;;;;;;;;;;0.70;99.90;;;;;;5047369;27;19976;-64
2022/12/12 09:04:07;;;;;;;;;;;0.80;99.90;;;;;;5047000;28;19977;-65
2022/12/12 09:06:33;;;;;;;;;;;0.80;99.90;;;;;;5014044;28;19961;-68
2022/12/12 09:08:59;;;;;;;;;;;0.80;99.90;;;;;;5031679;28;19929;-67
2022/12/12 09:11:25;;;;;;;;;;;0.80;99.90;;;;;;5031614;28;20335;-65
2022/12/12 09:13:50;;;;;;;;;;;0.90;99.90;;;;;;5031545;28;19976;-66
2022/12/12 09:16:16;;;;;;;;;;;0.90;99.90;;;;;;5046798;28;20050;-65
2022/12/12 09:18:42;;;;;;;;;;;0.90;99.90;;;;;;5013673;28;19929;-64
2022/12/12 09:21:07;;;;;;;;;;;0.90;99.90;;;;;;5031392;28;19925;-67
2022/12/12 09:23:33;;;;;;;;;;;0.90;99.90;;;;;;5047162;28;20375;-65
2022/12/12 09:26:03;;;;;;;;;;;0.90;99.90;;;;;;5013485;28;19925;-65
2022/12/12 09:28:29;;;;;;;;;;;0.90;99.90;;;;;;5047189;28;19925;-65
2022/12/12 09:30:54;;;;;;;;;;;1.00;99.90;;;;;;5031033;28;19952;-73
2022/12/12 09:33:20;;;;;;;;;;;0.90;99.90;;;;;;5031106;28;19932;-66
2022/12/12 09:35:45;;;;;;;;;;;1.00;99.90;;;;;;5030543;28;19929;-66
2022/12/12 09:38:11;;;;;;;;;;;1.00;99.90;;;;;;5031149;28;19977;-66
2022/12/12 09:40:53;;;;;;;;;;;1.10;99.90;;;;;;5031393;28;19930;-65
2022/12/12 09:43:21;;;;;;;;;;;1.10;99.90;;;;;;5030855;28;19925;-65
2022/12/12 09:45:47;;;;;;;;;;;1.10;99.90;;;;;;5031212;28;19954;-65
2022/12/12 09:48:18;;;;;;;;;;;1.10;99.90;;;;;;5029993;28;20020;-66
2022/12/12 09:50:46;;;;;;;;;;;1.20;99.90;;;;;;5030812;28;19925;-66
2022/12/12 09:53:14;;;;;;;;;;;1.20;99.90;;;;;;5045753;28;19925;-65
2022/12/12 09:55:40;;;;;;;;;;;1.20;99.90;;;;;;5046788;28;19931;-65
2022/12/12 09:58:18;;;;;;;;;;;1.20;99.90;;;;;;5013375;28;20348;-67
2022/12/12 10:00:48;;;;;;;;;;;1.20;99.90;;;;;;5030739;28;20375;-66
2022/12/12 10:03:13;;;;;;;;;;;1.20;99.90;;;;;;5042830;28;19935;-72
2022/12/12 10:05:58;;;;;;;;;;;1.20;99.90;;;;;;5059898;28;20020;-68
2022/12/12 10:08:26;;;;;;;;;;;1.30;99.90;;;;;;5029730;28;19947;-74
2022/12/12 10:10:55;;;;;;;;;;;1.30;99.90;;;;;;5043878;28;20282;-65
2022/12/12 10:13:24;;;;;;;;;;;1.30;99.90;;;;;;5029488;28;19974;-65
2022/12/12 10:15:58;;;;;;;;;;;1.30;99.90;;;;;;5030326;28;20431;-66
2022/12/12 10:18:27;;;;;;;;;;;1.40;99.90;;;;;;5027415;28;19925;-66
2022/12/12 10:20:55;;;;;;;;;;;1.40;99.90;;;;;;5028626;28;19925;-66
2022/12/12 10:23:23;;;;;;;;;;;1.40;99.90;;;;;;5027417;28;19921;-71
2022/12/12 10:25:49;;;;;;;;;;;1.40;99.90;;;;;;5045597;28;20427;-68
2022/12/12 10:28:16;;;;;;;;;;;1.40;99.90;;;;;;5044630;28;19925;-66
2022/12/12 10:30:57;;;;;;;;;;;1.50;99.90;;;;;;5028497;28;19929;-69
2022/12/12 10:33:29;;;;;;;;;;;1.40;99.90;;;;;;5028625;28;20105;-65
2022/12/12 10:35:58;;;;;;;;;;;1.40;99.90;;;;;;5010162;28;19926;-66
2022/12/12 10:38:32;;;;;;;;;;;1.40;99.90;;;;;;5044214;28;19929;-65
2022/12/12 10:41:10;;;;;;;;;;;1.50;99.90;;;;;;5029874;28;20002;-65
2022/12/12 10:43:47;;;;;;;;;;;1.50;99.90;;;;;;5044081;28;19944;-64
2022/12/12 10:46:13;;;;;;;;;;;1.40;99.90;;;;;;4995811;28;19932;-67
2022/12/12 10:48:39;;;;;;;;;;;1.90;99.90;;;;;;5029815;28;19925;-67
2022/12/12 10:51:12;;;;;;;;;;;1.50;99.90;;;;;;5029713;28;19925;-72
2022/12/12 10:53:39;;;;;;;;;;;1.50;99.90;;;;;;5029882;28;20015;-67
2022/12/12 10:56:09;;;;;;;;;;;1.50;99.90;;;;;;5028185;28;20036;-74
2022/12/12 10:58:42;;;;;;;;;;;1.50;99.90;;;;;;5029909;28;20005;-65
2022/12/12 11:01:16;;;;;;;;;;;1.60;99.90;;;;;;5011592;28;19925;-72
2022/12/12 11:03:44;;;;;;;;;;;1.60;99.90;;;;;;5029032;28;20023;-65
2022/12/12 11:06:11;;;;;;;;;;;1.60;99.90;;;;;;5042936;28;19932;-65
2022/12/12 11:08:37;;;;;;;;;;;1.60;99.90;;;;;;5010255;28;19955;-65
2022/12/12 11:11:03;;;;;;;;;;;1.60;99.90;;;;;;5029630;28;19932;-65
2022/12/12 11:13:29;;;;;;;;;;;1.60;99.90;;;;;;5029530;28;20495;-65
2022/12/12 11:15:59;;;;;;;;;;;1.60;99.90;;;;;;5029778;28;19940;-69
2022/12/12 11:18:25;;;;;;;;;;;1.60;99.90;;;;;;5043591;28;19932;-64
2022/12/12 11:21:10;;;;;;;;;;;1.60;99.90;;;;;;5029012;28;19929;-65
2022/12/12 11:23:40;;;;;;;;;;;1.70;99.90;;;;;;5028185;28;19977;-66
2022/12/12 11:26:16;;;;;;;;;;;1.80;99.90;;;;;;5044176;28;19937;-66
2022/12/12 11:28:44;;;;;;;;;;;1.80;99.90;;;;;;5029420;28;20033;-66
2022/12/12 11:31:11;;;;;;;;;;;1.90;99.90;;;;;;5026254;28;19925;-73
2022/12/12 11:33:39;;;;;;;;;;;1.90;99.90;;;;;;5029315;28;20078;-74
2022/12/12 11:36:05;;;;;;;;;;;1.80;99.90;;;;;;5028858;28;19925;-66
2022/12/12 11:38:39;;;;;;;;;;;1.80;99.90;;;;;;5042956;28;20127;-65
2022/12/12 11:41:06;;;;;;;;;;;1.80;99.90;;;;;;5027371;28;19951;-65
2022/12/12 11:43:35;;;;;;;;;;;1.90;99.90;;;;;;5028431;28;19921;-64
2022/12/12 11:46:13;;;;;;;;;;;1.90;99.90;;;;;;5025263;28;20044;-63
2022/12/12 11:48:41;;;;;;;;;;;1.80;99.90;;;;;;5029264;28;19932;-64
2022/12/12 11:51:07;;;;;;;;;;;1.80;99.90;;;;;;5028065;28;19978;-66
2022/12/12 11:53:35;;;;;;;;;;;1.80;99.90;;;;;;4988982;28;20020;-64
2022/12/12 11:56:19;;;;;;;;;;;2.10;99.90;;;;;;5042446;28;19925;-68
2022/12/12 11:58:50;;;;;;;;;;;1.90;99.90;;;;;;5040114;28;19922;-66
2022/12/12 12:01:31;;;;;;;;;;;1.90;99.90;;;;;;5028616;28;20180;-64
2022/12/12 12:04:23;;;;;;;;;;;1.90;99.90;;;;;;5029124;28;19929;-66
2022/12/12 12:07:10;;;;;;;;;;;1.90;99.90;;;;;;5011540;28;19925;-66
2022/12/12 12:09:45;;;;;;;;;;;1.90;99.90;;;;;;5044331;28;19937;-65
2022/12/12 12:12:11;;;;;;;;;;;1.90;99.90;;;;;;5044582;28;19932;-63
2022/12/12 12:14:55;;;;;;;;;;;1.80;99.90;;;;;;5027596;28;20016;-64
2022/12/12 12:17:21;;;;;;;;;;;1.80;99.90;;;;;;5043454;28;19925;-66
2022/12/12 12:20:05;;;;;;;;;;;1.70;99.90;;;;;;5010860;28;19925;-65
2022/12/12 12:22:56;;;;;;;;;;;1.60;99.90;;;;;;5027815;28;20408;-67
2022/12/12 12:25:27;;;;;;;;;;;1.60;99.90;;;;;;5028373;28;19925;-64
2022/12/12 12:28:02;;;;;;;;;;;1.50;99.90;;;;;;5043677;28;19932;-64
2022/12/12 12:31:03;;;;;;;;;;;1.40;99.90;;;;;;5028364;28;20029;-64
2022/12/12 12:33:48;;;;;;;;;;;1.40;99.90;;;;;;5071801;28;19924;-65
2022/12/12 12:36:17;;;;;;;;;;;1.40;99.90;;;;;;5033544;28;20306;-64
2022/12/12 12:39:01;;;;;;;;;;;1.40;99.90;;;;;;5044342;28;19925;-64
2022/12/12 12:41:47;;;;;;;;;;;1.70;99.90;;;;;;5025974;28;19933;-65
2022/12/12 12:44:12;;;;;;;;;;;1.50;99.90;;;;;;5042890;28;20023;-66
2022/12/12 12:46:54;;;;;;;;;;;1.40;99.90;;;;;;5028136;28;20416;-66
2022/12/12 12:49:25;;;;;;;;;;;1.40;99.90;;;;;;5028460;28;20332;-73
2022/12/12 12:51:54;;;;;;;;;;;1.40;99.90;;;;;;5043711;28;20019;-64
2022/12/12 12:54:24;;;;;;;;;;;1.50;99.90;;;;;;5042718;28;19948;-72
2022/12/12 12:56:50;;;;;;;;;;;1.50;99.90;;;;;;5027410;28;20027;-66
2022/12/12 12:59:18;;;;;;;;;;;1.70;99.90;;;;;;5043866;28;20039;-64
2022/12/12 13:01:45;;;;;;;;;;;1.50;99.90;;;;;;5026947;28;20393;-64
2022/12/12 13:04:10;;;;;;;;;;;1.50;99.90;;;;;;5028103;28;19978;-65
2022/12/12 13:06:39;;;;;;;;;;;1.50;99.90;;;;;;5043698;28;19933;-65
2022/12/12 13:09:27;;;;;;;;;;;1.40;99.90;;;;;;5028429;28;20081;-65
2022/12/12 13:11:58;;;;;;;;;;;1.50;99.90;;;;;;5028450;28;20235;-67
2022/12/12 13:14:38;;;;;;;;;;;1.50;99.90;;;;;;5010811;28;19972;-68
2022/12/12 13:17:06;;;;;;;;;;;1.50;99.90;;;;;;5044133;28;19970;-65
2022/12/12 13:19:34;;;;;;;;;;;1.60;99.90;;;;;;5027489;28;19939;-65
2022/12/12 13:22:12;;;;;;;;;;;1.60;99.90;;;;;;5027928;28;19929;-65
2022/12/12 13:24:43;;;;;;;;;;;1.60;99.90;;;;;;5028140;28;19925;-65
2022/12/12 13:27:39;;;;;;;;;;;1.60;99.90;;;;;;5030893;28;19995;-66
2022/12/12 13:30:14;;;;;;;;;;;1.70;99.90;;;;;;5043791;28;19978;-65
2022/12/12 13:32:54;;;;;;;;;;;1.70;99.90;;;;;;5063387;28;19926;-65
2022/12/12 13:35:29;;;;;;;;;;;1.70;99.90;;;;;;5031690;28;19925;-65
2022/12/12 13:37:55;;;;;;;;;;;1.70;99.90;;;;;;5047203;28;19925;-66
2022/12/12 13:40:40;;;;;;;;;;;1.70;99.90;;;;;;5047094;28;19925;-66
2022/12/12 13:43:21;;;;;;;;;;;1.70;99.90;;;;;;5013827;28;20028;-66
2022/12/12 13:45:47;;;;;;;;;;;1.70;99.90;;;;;;5030928;28;19944;-66
2022/12/12 13:48:25;;;;;;;;;;;1.70;99.90;;;;;;5046628;28;20260;-72
2022/12/12 13:51:10;;;;;;;;;;;1.70;99.90;;;;;;5046579;28;20382;-65
2022/12/12 13:53:35;;;;;;;;;;;1.70;99.90;;;;;;5029593;28;19933;-67
2022/12/12 13:56:20;;;;;;;;;;;1.70;99.90;;;;;;5046901;28;19934;-65
2022/12/12 13:58:45;;;;;;;;;;;1.70;99.90;;;;;;5030811;28;19925;-66
2022/12/12 14:01:29;;;;;;;;;;;1.70;99.90;;;;;;5013647;28;20008;-66
2022/12/12 14:03:55;;;;;;;;;;;1.70;99.90;;;;;;5046621;28;19932;-66
2022/12/12 14:06:21;;;;;;;;;;;1.70;99.90;;;;;;5031095;28;19941;-65
2022/12/12 14:08:48;;;;;;;;;;;1.70;99.90;;;;;;5030881;28;19929;-65
2022/12/12 14:11:23;;;;;;;;;;;1.70;99.90;;;;;;5031134;28;19925;-66
2022/12/12 14:13:49;;;;;;;;;;;1.70;99.90;;;;;;5030684;28;19947;-66
2022/12/12 14:16:18;;;;;;;;;;;1.60;99.90;;;;;;5030801;28;19978;-67
2022/12/12 14:18:49;;;;;;;;;;;1.60;99.90;;;;;;5030208;28;19929;-65
2022/12/12 14:21:16;;;;;;;;;;;1.70;99.90;;;;;;5030629;28;20259;-64
2022/12/12 14:23:46;;;;;;;;;;;1.70;99.90;;;;;;5029304;28;19932;-63
2022/12/12 14:26:27;;;;;;;;;;;1.70;99.90;;;;;;5013179;28;20005;-64
2022/12/12 14:29:11;;;;;;;;;;;1.60;99.90;;;;;;5041477;28;20161;-66
2022/12/12 14:31:39;;;;;;;;;;;1.60;99.90;;;;;;5027836;28;19929;-65
2022/12/12 14:34:16;;;;;;;;;;;1.60;99.90;;;;;;5044556;28;19929;-66
2022/12/12 14:36:54;;;;;;;;;;;1.50;99.90;;;;;;5030440;28;19925;-64
2022/12/12 14:39:40;;;;;;;;;;;1.50;99.90;;;;;;5030146;28;19925;-63
2022/12/12 14:42:06;;;;;;;;;;;1.50;99.90;;;;;;5025172;28;20304;-65
2022/12/12 14:44:32;;;;;;;;;;;1.50;99.90;;;;;;5045480;28;19939;-74
2022/12/12 14:46:58;;;;;;;;;;;1.50;99.90;;;;;;5029210;28;19925;-65
2022/12/12 14:49:24;;;;;;;;;;;1.50;99.90;;;;;;5030449;28;19932;-65
2022/12/12 14:51:53;;;;;;;;;;;1.40;99.90;;;;;;5045126;28;19925;-65
2022/12/12 14:54:20;;;;;;;;;;;1.40;99.90;;;;;;5028015;28;20366;-65
2022/12/12 14:57:00;;;;;;;;;;;1.40;99.90;;;;;;5044398;28;19980;-64
2022/12/12 14:59:27;;;;;;;;;;;1.40;99.90;;;;;;5044044;28;19925;-70
2022/12/12 15:01:57;;;;;;;;;;;1.40;99.90;;;;;;5029910;28;19925;-64